sensor_id;sensor_type;location;lat;lon;timestamp;pressure;altitude;pressure_sealevel;temperature;humidity
29907;BME280;16776;50.958;10.994;2023-03-19T00:01:33;98149.91;;;11.48;85.12
29907;BME280;16776;50.958;10.994;2023-03-19T00:04:00;98150.06;;;11.44;84.85
29907;BME280;16776;50.958;10.994;2023-03-19T00:06:28;98153.44;;;11.45;85.17
29907;BME280;16776;50.958;10.994;2023-03-19T00:08:54;98149.25;;;11.42;84.56
29907;BME280;16776;50.958;10.994;2023-03-19T00:11:21;98152.78;;;11.40;85.18
29907;BME280;16776;50.958;10.994;2023-03-19T00:13:48;98144.28;;;11.38;84.77
29907;BME280;16776;50.958;10.994;2023-03-19T00:16:20;98148.59;;;11.37;84.39
29907;BME280;16776;50.958;10.994;2023-03-19T00:18:47;98149.59;;;11.33;85.17
29907;BME280;16776;50.958;10.994;2023-03-19T00:21:13;98146.31;;;11.30;84.70
29907;BME280;16776;50.958;10.994;2023-03-19T00:23:41;98153.00;;;11.34;85.01
29907;BME280;16776;50.958;10.994;2023-03-19T00:26:08;98155.78;;;11.29;84.70
29907;BME280;16776;50.958;10.994;2023-03-19T00:28:34;98156.72;;;11.27;84.71
29907;BME280;16776;50.958;10.994;2023-03-19T00:31:08;98156.56;;;11.31;84.81
29907;BME280;16776;50.958;10.994;2023-03-19T00:33:35;98159.47;;;11.22;84.91
29907;BME280;16776;50.958;10.994;2023-03-19T00:36:03;98160.34;;;11.21;84.37
29907;BME280;16776;50.958;10.994;2023-03-19T00:38:30;98160.50;;;11.18;84.66
29907;BME280;16776;50.958;10.994;2023-03-19T00:40:58;98159.53;;;11.21;84.47
29907;BME280;16776;50.958;10.994;2023-03-19T00:43:24;98169.13;;;11.17;85.00
29907;BME280;16776;50.958;10.994;2023-03-19T00:45:51;98170.00;;;11.16;84.62
29907;BME280;16776;50.958;10.994;2023-03-19T00:48:17;98170.06;;;11.15;84.65
29907;BME280;16776;50.958;10.994;2023-03-19T00:50:44;98152.84;;;11.15;84.37
29907;BME280;16776;50.958;10.994;2023-03-19T00:53:11;98166.72;;;11.13;84.35
29907;BME280;16776;50.958;10.994;2023-03-19T00:55:37;98146.09;;;11.13;84.41
29907;BME280;16776;50.958;10.994;2023-03-19T00:58:05;98146.41;;;11.03;84.43
29907;BME280;16776;50.958;10.994;2023-03-19T01:00:32;98163.50;;;11.06;84.63
29907;BME280;16776;50.958;10.994;2023-03-19T01:02:59;98167.75;;;11.07;84.87
29907;BME280;16776;50.958;10.994;2023-03-19T01:05:26;98168.66;;;11.06;85.02
29907;BME280;16776;50.958;10.994;2023-03-19T01:07:52;98172.13;;;11.05;84.76
29907;BME280;16776;50.958;10.994;2023-03-19T01:10:20;98172.13;;;11.05;84.43
29907;BME280;16776;50.958;10.994;2023-03-19T01:12:47;98170.41;;;11.06;84.27
29907;BME280;16776;50.958;10.994;2023-03-19T01:15:18;98169.50;;;11.07;84.70
29907;BME280;16776;50.958;10.994;2023-03-19T01:17:45;98168.66;;;11.06;84.78
29907;BME280;16776;50.958;10.994;2023-03-19T01:20:11;98172.13;;;11.05;84.32
29907;BME280;16776;50.958;10.994;2023-03-19T01:22:39;98170.41;;;11.06;84.60
29907;BME280;16776;50.958;10.994;2023-03-19T01:25:08;98171.34;;;11.03;84.87
29907;BME280;16776;50.958;10.994;2023-03-19T01:27:35;98175.47;;;11.07;84.87
29907;BME280;16776;50.958;10.994;2023-03-19T01:30:02;98168.66;;;11.06;84.43
29907;BME280;16776;50.958;10.994;2023-03-19T01:32:30;98172.81;;;11.10;84.37
29907;BME280;16776;50.958;10.994;2023-03-19T01:34:56;98176.22;;;11.11;84.58
29907;BME280;16776;50.958;10.994;2023-03-19T01:37:23;98172.75;;;11.12;84.58
29907;BME280;16776;50.958;10.994;2023-03-19T01:39:49;98165.78;;;11.14;84.75
29907;BME280;16776;50.958;10.994;2023-03-19T01:42:16;98168.28;;;11.17;84.73
29907;BME280;16776;50.958;10.994;2023-03-19T01:44:44;98178.41;;;11.21;84.85
29907;BME280;16776;50.958;10.994;2023-03-19T01:47:14;98170.53;;;11.26;84.73
29907;BME280;16776;50.958;10.994;2023-03-19T01:49:46;98165.38;;;11.26;84.68
29907;BME280;16776;50.958;10.994;2023-03-19T01:52:18;98176.66;;;11.22;84.74
29907;BME280;16776;50.958;10.994;2023-03-19T01:54:45;98168.88;;;11.23;84.37
29907;BME280;16776;50.958;10.994;2023-03-19T01:57:16;98172.25;;;11.25;84.62
29907;BME280;16776;50.958;10.994;2023-03-19T01:59:44;98171.28;;;11.28;84.93
29907;BME280;16776;50.958;10.994;2023-03-19T02:02:16;98173.78;;;11.31;84.62
29907;BME280;16776;50.958;10.994;2023-03-19T02:04:48;98170.34;;;11.30;84.79
29907;BME280;16776;50.958;10.994;2023-03-19T02:07:16;98158.44;;;11.26;84.83
29907;BME280;16776;50.958;10.994;2023-03-19T02:09:43;98146.41;;;11.27;85.31
29907;BME280;16776;50.958;10.994;2023-03-19T02:12:11;98157.50;;;11.29;85.51
29907;BME280;16776;50.958;10.994;2023-03-19T02:14:38;98176.41;;;11.29;86.50
29907;BME280;16776;50.958;10.994;2023-03-19T02:17:05;98153.38;;;11.25;85.61
29907;BME280;16776;50.958;10.994;2023-03-19T02:19:39;98164.97;;;11.36;86.11
29907;BME280;16776;50.958;10.994;2023-03-19T02:22:11;98165.84;;;11.35;86.09
29907;BME280;16776;50.958;10.994;2023-03-19T02:24:44;98167.41;;;11.39;85.53
29907;BME280;16776;50.958;10.994;2023-03-19T02:27:16;98162.47;;;11.33;85.75
29907;BME280;16776;50.958;10.994;2023-03-19T02:29:43;98156.56;;;11.31;85.63
29907;BME280;16776;50.958;10.994;2023-03-19T02:32:09;98166.78;;;11.33;85.52
29907;BME280;16776;50.958;10.994;2023-03-19T02:34:38;98164.22;;;11.33;85.65
29907;BME280;16776;50.958;10.994;2023-03-19T02:37:13;98156.34;;;11.37;85.25
29907;BME280;16776;50.958;10.994;2023-03-19T02:39:48;98172.78;;;11.33;85.12
29907;BME280;16776;50.958;10.994;2023-03-19T02:42:18;98166.25;;;11.25;85.47
29907;BME280;16776;50.958;10.994;2023-03-19T02:44:46;98162.28;;;11.16;85.86
29907;BME280;16776;50.958;10.994;2023-03-19T02:47:13;98172.81;;;11.10;85.38
29907;BME280;16776;50.958;10.994;2023-03-19T02:49:40;98182.44;;;11.05;85.43
29907;BME280;16776;50.958;10.994;2023-03-19T02:52:07;98175.03;;;10.96;85.47
29907;BME280;16776;50.958;10.994;2023-03-19T02:54:34;98179.69;;;10.86;85.85
29907;BME280;16776;50.958;10.994;2023-03-19T02:57:00;98174.88;;;10.76;85.83
29907;BME280;16776;50.958;10.994;2023-03-19T02:59:29;98169.94;;;10.70;85.61
29907;BME280;16776;50.958;10.994;2023-03-19T03:01:56;98169.47;;;10.58;85.62
29907;BME280;16776;50.958;10.994;2023-03-19T03:04:22;98174.84;;;10.51;85.54
29907;BME280;16776;50.958;10.994;2023-03-19T03:06:49;98173.38;;;10.44;85.63
29907;BME280;16776;50.958;10.994;2023-03-19T03:09:15;98169.25;;;10.38;85.56
29907;BME280;16776;50.958;10.994;2023-03-19T03:11:42;98170.28;;;10.34;85.65
29907;BME280;16776;50.958;10.994;2023-03-19T03:14:09;98172.09;;;10.31;85.61
29907;BME280;16776;50.958;10.994;2023-03-19T03:16:38;98173.03;;;10.28;85.72
29907;BME280;16776;50.958;10.994;2023-03-19T03:19:04;98178.41;;;10.22;85.54
29907;BME280;16776;50.958;10.994;2023-03-19T03:21:31;98185.31;;;10.20;85.42
29907;BME280;16776;50.958;10.994;2023-03-19T03:23:58;98187.09;;;10.18;85.64
29907;BME280;16776;50.958;10.994;2023-03-19T03:26:25;98182.91;;;10.15;85.79
29907;BME280;16776;50.958;10.994;2023-03-19T03:28:52;98188.09;;;10.14;85.65
29907;BME280;16776;50.958;10.994;2023-03-19T03:31:19;98177.84;;;10.12;86.92
29907;BME280;16776;50.958;10.994;2023-03-19T03:33:48;98180.28;;;10.17;87.80
29907;BME280;16776;50.958;10.994;2023-03-19T03:36:18;98192.88;;;10.24;87.10
29907;BME280;16776;50.958;10.994;2023-03-19T03:38:44;98184.81;;;10.35;87.01
29907;BME280;16776;50.958;10.994;2023-03-19T03:41:11;98191.38;;;10.44;86.34
29907;BME280;16776;50.958;10.994;2023-03-19T03:43:38;98196.44;;;10.47;86.24
29907;BME280;16776;50.958;10.994;2023-03-19T03:46:05;98192.13;;;10.47;86.15
29907;BME280;16776;50.958;10.994;2023-03-19T03:48:32;98189.66;;;10.44;85.91
29907;BME280;16776;50.958;10.994;2023-03-19T03:50:59;98194.03;;;10.42;85.93
29907;BME280;16776;50.958;10.994;2023-03-19T03:53:27;98200.19;;;10.37;85.68
29907;BME280;16776;50.958;10.994;2023-03-19T03:55:54;98203.81;;;10.31;85.87
29907;BME280;16776;50.958;10.994;2023-03-19T03:58:20;98203.13;;;10.26;85.95
29907;BME280;16776;50.958;10.994;2023-03-19T04:00:48;98206.75;;;10.20;85.80
29907;BME280;16776;50.958;10.994;2023-03-19T04:03:14;98201.78;;;10.14;85.77
29907;BME280;16776;50.958;10.994;2023-03-19T04:05:42;98204.53;;;10.10;85.61
29907;BME280;16776;50.958;10.994;2023-03-19T04:08:10;98206.34;;;10.06;85.90
29907;BME280;16776;50.958;10.994;2023-03-19T04:10:38;98202.25;;;9.99;85.92
29907;BME280;16776;50.958;10.994;2023-03-19T04:13:06;98196.59;;;9.90;85.95
29907;BME280;16776;50.958;10.994;2023-03-19T04:15:33;98206.94;;;9.87;85.41
29907;BME280;16776;50.958;10.994;2023-03-19T04:18:00;98205.44;;;9.79;85.68
29907;BME280;16776;50.958;10.994;2023-03-19T04:20:26;98202.19;;;9.74;86.00
29907;BME280;16776;50.958;10.994;2023-03-19T04:22:58;98200.59;;;9.70;86.00
29907;BME280;16776;50.958;10.994;2023-03-19T04:25:28;98199.94;;;9.64;85.96
29907;BME280;16776;50.958;10.994;2023-03-19T04:27:56;98197.59;;;9.56;86.08
29907;BME280;16776;50.958;10.994;2023-03-19T04:30:24;98197.66;;;9.53;86.12
29907;BME280;16776;50.958;10.994;2023-03-19T04:32:51;98197.91;;;9.46;86.20
29907;BME280;16776;50.958;10.994;2023-03-19T04:35:18;98197.13;;;9.42;86.39
29907;BME280;16776;50.958;10.994;2023-03-19T04:37:45;98201.50;;;9.40;86.05
29907;BME280;16776;50.958;10.994;2023-03-19T04:40:13;98201.53;;;9.37;85.94
29907;BME280;16776;50.958;10.994;2023-03-19T04:42:41;98205.84;;;9.38;86.35
29907;BME280;16776;50.958;10.994;2023-03-19T04:45:09;98214.47;;;9.34;86.29
29907;BME280;16776;50.958;10.994;2023-03-19T04:47:36;98216.22;;;9.33;86.34
29907;BME280;16776;50.958;10.994;2023-03-19T04:50:04;98217.13;;;9.31;86.16
29907;BME280;16776;50.958;10.994;2023-03-19T04:52:31;98223.16;;;9.30;86.27
29907;BME280;16776;50.958;10.994;2023-03-19T04:54:58;98219.78;;;9.28;86.47
29907;BME280;16776;50.958;10.994;2023-03-19T04:57:24;98218.16;;;9.25;86.67
29907;BME280;16776;50.958;10.994;2023-03-19T04:59:52;98213.00;;;9.25;86.80
29907;BME280;16776;50.958;10.994;2023-03-19T05:02:19;98215.72;;;9.21;86.98
29907;BME280;16776;50.958;10.994;2023-03-19T05:04:46;98212.34;;;9.19;87.16
29907;BME280;16776;50.958;10.994;2023-03-19T05:07:15;98215.59;;;9.25;87.14
29907;BME280;16776;50.958;10.994;2023-03-19T05:09:45;98214.88;;;9.20;86.78
29907;BME280;16776;50.958;10.994;2023-03-19T05:12:12;98206.25;;;9.21;87.15
29907;BME280;16776;50.958;10.994;2023-03-19T05:14:39;98201.97;;;9.22;86.85
29907;BME280;16776;50.958;10.994;2023-03-19T05:17:09;98205.28;;;9.27;87.22
29907;BME280;16776;50.958;10.994;2023-03-19T05:19:36;98213.88;;;9.26;87.45
29907;BME280;16776;50.958;10.994;2023-03-19T05:22:03;98212.13;;;9.26;87.37
29907;BME280;16776;50.958;10.994;2023-03-19T05:24:32;98213.72;;;9.30;87.63
29907;BME280;16776;50.958;10.994;2023-03-19T05:26:59;98212.06;;;9.28;87.70
29907;BME280;16776;50.958;10.994;2023-03-19T05:29:25;98212.06;;;9.28;87.48
29907;BME280;16776;50.958;10.994;2023-03-19T05:31:52;98224.03;;;9.29;87.46
29907;BME280;16776;50.958;10.994;2023-03-19T05:34:20;98223.97;;;9.32;87.27
29907;BME280;16776;50.958;10.994;2023-03-19T05:36:47;98220.59;;;9.30;87.62
29907;BME280;16776;50.958;10.994;2023-03-19T05:39:14;98226.56;;;9.30;87.23
29907;BME280;16776;50.958;10.994;2023-03-19T05:41:40;98226.53;;;9.32;87.68
29907;BME280;16776;50.958;10.994;2023-03-19T05:44:07;98223.97;;;9.32;87.46
29907;BME280;16776;50.958;10.994;2023-03-19T05:46:34;98233.38;;;9.33;87.57
29907;BME280;16776;50.958;10.994;2023-03-19T05:49:00;98230.78;;;9.33;87.42
29907;BME280;16776;50.958;10.994;2023-03-19T05:51:31;98230.78;;;9.33;87.52
29907;BME280;16776;50.958;10.994;2023-03-19T05:53:58;98236.03;;;9.28;87.42
29907;BME280;16776;50.958;10.994;2023-03-19T05:56:26;98235.25;;;9.26;88.01
29907;BME280;16776;50.958;10.994;2023-03-19T05:58:53;98232.75;;;9.23;87.86
29907;BME280;16776;50.958;10.994;2023-03-19T06:01:20;98237.94;;;9.22;87.51
29907;BME280;16776;50.958;10.994;2023-03-19T06:03:46;98230.22;;;9.22;87.86
29907;BME280;16776;50.958;10.994;2023-03-19T06:06:16;98231.13;;;9.21;87.89
29907;BME280;16776;50.958;10.994;2023-03-19T06:08:44;98235.28;;;9.25;88.31
29907;BME280;16776;50.958;10.994;2023-03-19T06:11:11;98242.22;;;9.21;88.13
29907;BME280;16776;50.958;10.994;2023-03-19T06:13:38;98238.78;;;9.22;87.89
29907;BME280;16776;50.958;10.994;2023-03-19T06:16:08;98246.38;;;9.27;87.67
29907;BME280;16776;50.958;10.994;2023-03-19T06:18:34;98243.81;;;9.27;88.15
29907;BME280;16776;50.958;10.994;2023-03-19T06:21:01;98248.84;;;9.30;88.27
29907;BME280;16776;50.958;10.994;2023-03-19T06:23:28;98248.81;;;9.31;88.37
29907;BME280;16776;50.958;10.994;2023-03-19T06:25:56;98253.81;;;9.36;88.10
29907;BME280;16776;50.958;10.994;2023-03-19T06:28:22;98253.81;;;9.36;88.61
29907;BME280;16776;50.958;10.994;2023-03-19T06:30:49;98243.53;;;9.37;88.18
29907;BME280;16776;50.958;10.994;2023-03-19T06:33:16;98252.84;;;9.41;88.45
29907;BME280;16776;50.958;10.994;2023-03-19T06:35:42;98259.63;;;9.44;88.33
29907;BME280;16776;50.958;10.994;2023-03-19T06:38:12;98259.50;;;9.49;88.35
29907;BME280;16776;50.958;10.994;2023-03-19T06:40:38;98252.59;;;9.51;88.32
29907;BME280;16776;50.958;10.994;2023-03-19T06:43:06;98267.75;;;9.60;88.32
29907;BME280;16776;50.958;10.994;2023-03-19T06:45:36;98262.59;;;9.60;88.42
29907;BME280;16776;50.958;10.994;2023-03-19T06:48:03;98262.47;;;9.64;88.78
29907;BME280;16776;50.958;10.994;2023-03-19T06:50:30;98270.06;;;9.69;88.55
29907;BME280;16776;50.958;10.994;2023-03-19T06:52:56;98272.50;;;9.73;88.60
29907;BME280;16776;50.958;10.994;2023-03-19T06:55:23;98280.13;;;9.76;88.73
29907;BME280;16776;50.958;10.994;2023-03-19T06:57:51;98285.97;;;9.81;88.81
29907;BME280;16776;50.958;10.994;2023-03-19T07:00:19;98286.63;;;9.88;88.65
29907;BME280;16776;50.958;10.994;2023-03-19T07:02:46;98284.09;;;9.87;88.63
29907;BME280;16776;50.958;10.994;2023-03-19T07:05:16;98292.44;;;9.95;88.85
29907;BME280;16776;50.958;10.994;2023-03-19T07:07:42;98294.84;;;10.01;88.82
29907;BME280;16776;50.958;10.994;2023-03-19T07:10:09;98291.28;;;10.05;88.95
29907;BME280;16776;50.958;10.994;2023-03-19T07:12:43;98301.34;;;10.12;88.89
29907;BME280;16776;50.958;10.994;2023-03-19T07:15:10;98292.59;;;10.18;88.98
29907;BME280;16776;50.958;10.994;2023-03-19T07:17:38;98303.50;;;10.26;89.12
29907;BME280;16776;50.958;10.994;2023-03-19T07:20:05;98305.06;;;10.30;88.95
29907;BME280;16776;50.958;10.994;2023-03-19T07:22:32;98303.31;;;10.32;89.37
29907;BME280;16776;50.958;10.994;2023-03-19T07:24:58;98306.66;;;10.36;89.32
29907;BME280;16776;50.958;10.994;2023-03-19T07:27:25;98308.22;;;10.40;89.24
29907;BME280;16776;50.958;10.994;2023-03-19T07:29:51;98308.13;;;10.43;89.20
29907;BME280;16776;50.958;10.994;2023-03-19T07:32:20;98315.75;;;10.46;89.27
29907;BME280;16776;50.958;10.994;2023-03-19T07:34:50;98309.59;;;10.50;89.64
29907;BME280;16776;50.958;10.994;2023-03-19T07:37:17;98308.84;;;10.48;89.46
29907;BME280;16776;50.958;10.994;2023-03-19T07:39:43;98311.34;;;10.49;89.59
29907;BME280;16776;50.958;10.994;2023-03-19T07:42:10;98313.88;;;10.52;89.23
29907;BME280;16776;50.958;10.994;2023-03-19T07:44:37;98309.56;;;10.51;89.62
29907;BME280;16776;50.958;10.994;2023-03-19T07:47:03;98312.09;;;10.54;89.87
29907;BME280;16776;50.958;10.994;2023-03-19T07:49:30;98320.59;;;10.56;89.85
29907;BME280;16776;50.958;10.994;2023-03-19T07:51:58;98319.66;;;10.59;89.68
29907;BME280;16776;50.958;10.994;2023-03-19T07:54:24;98321.41;;;10.58;89.68
29907;BME280;16776;50.958;10.994;2023-03-19T07:56:51;98323.88;;;10.61;89.84
29907;BME280;16776;50.958;10.994;2023-03-19T07:59:17;98323.81;;;10.63;89.63
29907;BME280;16776;50.958;10.994;2023-03-19T08:01:44;98326.34;;;10.64;89.86
29907;BME280;16776;50.958;10.994;2023-03-19T08:04:11;98323.69;;;10.68;89.63
29907;BME280;16776;50.958;10.994;2023-03-19T08:06:37;98321.97;;;10.68;90.16
29907;BME280;16776;50.958;10.994;2023-03-19T08:09:08;98326.84;;;10.76;89.91
29907;BME280;16776;50.958;10.994;2023-03-19T08:11:35;98327.84;;;10.72;89.85
29907;BME280;16776;50.958;10.994;2023-03-19T08:14:02;98329.41;;;10.76;90.16
29907;BME280;16776;50.958;10.994;2023-03-19T08:16:29;98330.22;;;10.78;89.92
29907;BME280;16776;50.958;10.994;2023-03-19T08:18:55;98330.06;;;10.82;89.95
29907;BME280;16776;50.958;10.994;2023-03-19T08:21:22;98330.69;;;10.89;90.33
29907;BME280;16776;50.958;10.994;2023-03-19T08:23:49;98332.31;;;10.93;90.25
29907;BME280;16776;50.958;10.994;2023-03-19T08:26:19;98334.72;;;10.97;89.94
29907;BME280;16776;50.958;10.994;2023-03-19T08:28:46;98335.56;;;10.98;90.12
29907;BME280;16776;50.958;10.994;2023-03-19T08:31:13;98342.34;;;11.00;90.34
29907;BME280;16776;50.958;10.994;2023-03-19T08:33:42;98344.09;;;11.00;90.54
29907;BME280;16776;50.958;10.994;2023-03-19T08:36:10;98348.28;;;11.02;90.76
29907;BME280;16776;50.958;10.994;2023-03-19T08:38:37;98342.22;;;11.05;90.48
29907;BME280;16776;50.958;10.994;2023-03-19T08:41:04;98342.97;;;11.07;90.53
29907;BME280;16776;50.958;10.994;2023-03-19T08:43:34;98348.00;;;11.12;90.79
29907;BME280;16776;50.958;10.994;2023-03-19T08:46:02;98348.84;;;11.12;90.87
29907;BME280;16776;50.958;10.994;2023-03-19T08:48:30;98348.72;;;11.15;90.71
29907;BME280;16776;50.958;10.994;2023-03-19T08:50:59;98346.00;;;11.20;90.46
29907;BME280;16776;50.958;10.994;2023-03-19T08:53:26;98345.91;;;11.23;90.63
29907;BME280;16776;50.958;10.994;2023-03-19T08:55:54;98350.88;;;11.27;90.76
29907;BME280;16776;50.958;10.994;2023-03-19T08:58:21;98352.53;;;11.30;91.35
29907;BME280;16776;50.958;10.994;2023-03-19T09:00:49;98351.56;;;11.32;91.13
29907;BME280;16776;50.958;10.994;2023-03-19T09:03:18;98356.63;;;11.35;91.43
29907;BME280;16776;50.958;10.994;2023-03-19T09:05:45;98358.13;;;11.42;91.54
29907;BME280;16776;50.958;10.994;2023-03-19T09:08:12;98367.41;;;11.47;91.28
29907;BME280;16776;50.958;10.994;2023-03-19T09:10:39;98365.63;;;11.49;91.14
29907;BME280;16776;50.958;10.994;2023-03-19T09:13:05;98362.78;;;11.56;91.41
29907;BME280;16776;50.958;10.994;2023-03-19T09:15:32;98342.59;;;11.44;91.70
29907;BME280;16776;50.958;10.994;2023-03-19T09:18:00;98362.34;;;11.70;91.78
29907;BME280;16776;50.958;10.994;2023-03-19T09:20:26;98366.50;;;11.74;91.51
29907;BME280;16776;50.958;10.994;2023-03-19T09:22:53;98373.16;;;11.79;90.98
29907;BME280;16776;50.958;10.994;2023-03-19T09:25:20;98372.94;;;11.86;91.05
29907;BME280;16776;50.958;10.994;2023-03-19T09:27:46;98373.63;;;11.91;91.20
29907;BME280;16776;50.958;10.994;2023-03-19T09:30:13;98367.47;;;11.95;91.36
29907;BME280;16776;50.958;10.994;2023-03-19T09:32:40;98387.88;;;12.01;90.98
29907;BME280;16776;50.958;10.994;2023-03-19T09:35:11;98382.38;;;12.10;90.71
29907;BME280;16776;50.958;10.994;2023-03-19T09:37:37;98384.19;;;12.08;90.92
29907;BME280;16776;50.958;10.994;2023-03-19T09:40:05;98392.59;;;12.13;90.54
29907;BME280;16776;50.958;10.994;2023-03-19T09:42:46;98398.25;;;12.22;90.57
29907;BME280;16776;50.958;10.994;2023-03-19T09:45:16;98396.59;;;12.21;91.05
29907;BME280;16776;50.958;10.994;2023-03-19T09:47:44;98397.34;;;12.23;90.43
29907;BME280;16776;50.958;10.994;2023-03-19T09:50:18;98398.63;;;12.35;90.40
29907;BME280;16776;50.958;10.994;2023-03-19T09:52:46;98395.91;;;12.40;89.91
29907;BME280;16776;50.958;10.994;2023-03-19T09:55:23;98399.47;;;12.36;91.00
29907;BME280;16776;50.958;10.994;2023-03-19T09:57:55;98396.84;;;12.37;91.06
29907;BME280;16776;50.958;10.994;2023-03-19T10:00:25;98394.31;;;12.36;90.50
29907;BME280;16776;50.958;10.994;2023-03-19T10:02:57;98392.56;;;12.36;90.11
29907;BME280;16776;50.958;10.994;2023-03-19T10:05:40;98401.13;;;12.38;90.24
29907;BME280;16776;50.958;10.994;2023-03-19T10:08:36;98400.16;;;12.41;89.96
29907;BME280;16776;50.958;10.994;2023-03-19T10:11:18;98406.34;;;12.37;90.56
29907;BME280;16776;50.958;10.994;2023-03-19T10:14:05;98401.31;;;12.34;90.35
29907;BME280;16776;50.958;10.994;2023-03-19T10:16:40;98407.47;;;12.30;90.61
29907;BME280;16776;50.958;10.994;2023-03-19T10:19:11;98410.41;;;12.20;91.13
29907;BME280;16776;50.958;10.994;2023-03-19T10:21:43;98410.25;;;12.23;90.29
29907;BME280;16776;50.958;10.994;2023-03-19T10:24:13;98411.69;;;12.09;91.29
29907;BME280;16776;50.958;10.994;2023-03-19T10:26:42;98418.59;;;12.08;91.13
29907;BME280;16776;50.958;10.994;2023-03-19T10:29:14;98415.31;;;12.03;91.08
29907;BME280;16776;50.958;10.994;2023-03-19T10:31:45;98411.28;;;11.96;91.64
29907;BME280;16776;50.958;10.994;2023-03-19T10:34:32;98415.53;;;11.97;91.45
29907;BME280;16776;50.958;10.994;2023-03-19T10:37:03;98415.03;;;11.88;92.27
29907;BME280;16776;50.958;10.994;2023-03-19T10:39:32;98412.72;;;11.80;92.86
29907;BME280;16776;50.958;10.994;2023-03-19T10:42:12;98416.13;;;11.80;93.09
29907;BME280;16776;50.958;10.994;2023-03-19T10:44:47;98424.03;;;11.76;93.20
29907;BME280;16776;50.958;10.994;2023-03-19T10:47:15;98412.13;;;11.72;93.25
29907;BME280;16776;50.958;10.994;2023-03-19T10:49:44;98417.47;;;11.67;93.25
29907;BME280;16776;50.958;10.994;2023-03-19T10:52:20;98421.59;;;11.71;93.02
29907;BME280;16776;50.958;10.994;2023-03-19T10:54:53;98419.31;;;11.64;93.52
29907;BME280;16776;50.958;10.994;2023-03-19T10:57:21;98420.94;;;11.66;93.03
29907;BME280;16776;50.958;10.994;2023-03-19T10:59:48;98423.16;;;11.51;94.60
29907;BME280;16776;50.958;10.994;2023-03-19T11:02:19;98411.16;;;11.50;94.83
29907;BME280;16776;50.958;10.994;2023-03-19T11:04:46;98422.38;;;11.49;95.04
29907;BME280;16776;50.958;10.994;2023-03-19T11:07:19;98420.47;;;11.54;94.18
29907;BME280;16776;50.958;10.994;2023-03-19T11:09:47;98418.84;;;11.51;95.05
29907;BME280;16776;50.958;10.994;2023-03-19T11:12:17;98419.59;;;11.55;94.51
29907;BME280;16776;50.958;10.994;2023-03-19T11:14:46;98421.16;;;11.59;94.61
29907;BME280;16776;50.958;10.994;2023-03-19T11:19:58;98419.50;;;11.58;95.05
29907;BME280;16776;50.958;10.994;2023-03-19T11:22:27;98426.13;;;11.65;95.93
29907;BME280;16776;50.958;10.994;2023-03-19T11:24:59;98417.47;;;11.67;95.08
29907;BME280;16776;50.958;10.994;2023-03-19T11:27:28;98423.50;;;11.66;95.55
29907;BME280;16776;50.958;10.994;2023-03-19T11:29:59;98420.13;;;11.64;95.84
29907;BME280;16776;50.958;10.994;2023-03-19T11:32:52;98427.50;;;11.75;95.28
29907;BME280;16776;50.958;10.994;2023-03-19T11:35:28;98422.44;;;11.72;96.15
29907;BME280;16776;50.958;10.994;2023-03-19T11:38:01;98414.78;;;11.70;96.47
29907;BME280;16776;50.958;10.994;2023-03-19T11:40:34;98413.81;;;11.73;95.83
29907;BME280;16776;50.958;10.994;2023-03-19T11:43:36;98408.56;;;11.76;95.40
29907;BME280;16776;50.958;10.994;2023-03-19T11:46:11;98409.75;;;11.66;95.68
29907;BME280;16776;50.958;10.994;2023-03-19T11:49:05;98411.44;;;11.67;95.52
29907;BME280;16776;50.958;10.994;2023-03-19T11:51:42;98397.91;;;11.60;96.22
29907;BME280;16776;50.958;10.994;2023-03-19T11:54:21;98399.63;;;11.61;96.20
29907;BME280;16776;50.958;10.994;2023-03-19T11:56:54;98403.03;;;11.62;96.68
29907;BME280;16776;50.958;10.994;2023-03-19T11:59:35;98399.44;;;11.66;96.18
29907;BME280;16776;50.958;10.994;2023-03-19T12:02:31;98401.03;;;11.70;96.42
29907;BME280;16776;50.958;10.994;2023-03-19T12:05:23;98397.50;;;11.72;95.78
29907;BME280;16776;50.958;10.994;2023-03-19T12:07:59;98389.00;;;11.70;96.79
29907;BME280;16776;50.958;10.994;2023-03-19T12:10:37;98386.25;;;11.75;96.36
29907;BME280;16776;50.958;10.994;2023-03-19T12:13:14;98398.06;;;11.80;96.83
29907;BME280;16776;50.958;10.994;2023-03-19T12:15:54;98386.75;;;11.84;96.43
29907;BME280;16776;50.958;10.994;2023-03-19T12:18:37;98386.50;;;11.91;96.55
29907;BME280;16776;50.958;10.994;2023-03-19T12:21:16;98386.66;;;11.88;96.78
29907;BME280;16776;50.958;10.994;2023-03-19T12:23:56;98379.41;;;11.97;96.22
29907;BME280;16776;50.958;10.994;2023-03-19T12:26:32;98390.41;;;12.02;97.67
29907;BME280;16776;50.958;10.994;2023-03-19T12:29:10;98381.66;;;12.06;97.15
29907;BME280;16776;50.958;10.994;2023-03-19T12:31:51;98382.88;;;12.19;97.59
29907;BME280;16776;50.958;10.994;2023-03-19T12:34:26;98379.19;;;12.27;97.47
29907;BME280;16776;50.958;10.994;2023-03-19T12:37:09;98372.56;;;12.41;96.87
29907;BME280;16776;50.958;10.994;2023-03-19T12:39:41;98364.53;;;12.49;96.39
29907;BME280;16776;50.958;10.994;2023-03-19T12:42:16;98369.25;;;12.61;95.81
29907;BME280;16776;50.958;10.994;2023-03-19T12:44:49;98362.19;;;12.66;95.93
29907;BME280;16776;50.958;10.994;2023-03-19T12:47:22;98367.78;;;12.77;95.79
29907;BME280;16776;50.958;10.994;2023-03-19T12:49:53;98361.47;;;12.84;95.34
29907;BME280;16776;50.958;10.994;2023-03-19T12:52:24;98360.38;;;12.90;94.80
29907;BME280;16776;50.958;10.994;2023-03-19T12:54:57;98362.66;;;12.97;94.92
29907;BME280;16776;50.958;10.994;2023-03-19T12:57:31;98356.34;;;13.05;94.70
29907;BME280;16776;50.958;10.994;2023-03-19T13:00:04;98357.09;;;13.07;94.50
29907;BME280;16776;50.958;10.994;2023-03-19T13:02:37;98350.91;;;13.11;94.55
29907;BME280;16776;50.958;10.994;2023-03-19T13:05:12;98355.16;;;13.12;94.50
29907;BME280;16776;50.958;10.994;2023-03-19T13:07:59;98356.31;;;13.25;94.01